sensor_id;sensor_type;location;lat;lon;timestamp;temperature;humidity
20714;DHT22;10518;50.742;4.226;2023-05-29T00:00:30;15.60;99.90
20714;DHT22;10518;50.742;4.226;2023-05-29T00:02:57;15.40;99.90
20714;DHT22;10518;50.742;4.226;2023-05-29T00:05:22;15.30;99.90
20714;DHT22;10518;50.742;4.226;2023-05-29T00:07:48;15.20;99.90
20714;DHT22;10518;50.742;4.226;2023-05-29T00:10:15;15.30;99.90
20714;DHT22;10518;50.742;4.226;2023-05-29T00:12:41;15.40;99.90
20714;DHT22;10518;50.742;4.226;2023-05-29T00:15:09;15.30;99.90
20714;DHT22;10518;50.742;4.226;2023-05-29T00:17:37;15.20;99.90
20714;DHT22;10518;50.742;4.226;2023-05-29T00:20:05;15.00;99.90
20714;DHT22;10518;50.742;4.226;2023-05-29T00:22:35;15.10;99.90
20714;DHT22;10518;50.742;4.226;2023-05-29T00:25:05;15.00;99.90
20714;DHT22;10518;50.742;4.226;2023-05-29T00:27:31;15.10;99.90
20714;DHT22;10518;50.742;4.226;2023-05-29T00:29:58;14.90;99.90
20714;DHT22;10518;50.742;4.226;2023-05-29T00:32:24;14.80;99.90
20714;DHT22;10518;50.742;4.226;2023-05-29T00:34:51;15.00;99.90
20714;DHT22;10518;50.742;4.226;2023-05-29T00:37:17;14.80;99.90
20714;DHT22;10518;50.742;4.226;2023-05-29T00:39:42;14.60;99.90
20714;DHT22;10518;50.742;4.226;2023-05-29T00:42:08;14.80;99.90
20714;DHT22;10518;50.742;4.226;2023-05-29T00:44:34;14.70;99.90
20714;DHT22;10518;50.742;4.226;2023-05-29T00:47:01;14.50;99.90
20714;DHT22;10518;50.742;4.226;2023-05-29T00:49:27;14.50;99.90
20714;DHT22;10518;50.742;4.226;2023-05-29T00:51:54;14.60;99.90
20714;DHT22;10518;50.742;4.226;2023-05-29T00:54:26;14.80;99.90
20714;DHT22;10518;50.742;4.226;2023-05-29T00:56:52;14.40;99.90
20714;DHT22;10518;50.742;4.226;2023-05-29T00:59:19;14.40;99.90
20714;DHT22;10518;50.742;4.226;2023-05-29T01:01:48;14.30;99.90
20714;DHT22;10518;50.742;4.226;2023-05-29T01:04:15;14.40;99.90
20714;DHT22;10518;50.742;4.226;2023-05-29T01:06:42;14.30;99.90
20714;DHT22;10518;50.742;4.226;2023-05-29T01:09:07;14.20;99.90
20714;DHT22;10518;50.742;4.226;2023-05-29T01:29:14;14.10;99.90
20714;DHT22;10518;50.742;4.226;2023-05-29T01:31:42;14.00;99.90
20714;DHT22;10518;50.742;4.226;2023-05-29T01:34:07;13.90;99.90
20714;DHT22;10518;50.742;4.226;2023-05-29T01:36:33;13.80;99.90
20714;DHT22;10518;50.742;4.226;2023-05-29T01:38:59;13.80;99.90
20714;DHT22;10518;50.742;4.226;2023-05-29T01:41:26;14.00;99.90
20714;DHT22;10518;50.742;4.226;2023-05-29T01:43:52;14.00;99.90
20714;DHT22;10518;50.742;4.226;2023-05-29T01:46:19;13.90;99.90
20714;DHT22;10518;50.742;4.226;2023-05-29T01:48:46;13.70;99.90
20714;DHT22;10518;50.742;4.226;2023-05-29T01:51:12;13.50;99.90
20714;DHT22;10518;50.742;4.226;2023-05-29T01:53:42;13.60;99.90
20714;DHT22;10518;50.742;4.226;2023-05-29T01:56:08;13.50;99.90
20714;DHT22;10518;50.742;4.226;2023-05-29T01:58:35;13.40;99.90
20714;DHT22;10518;50.742;4.226;2023-05-29T02:01:02;13.20;99.90
20714;DHT22;10518;50.742;4.226;2023-05-29T02:03:31;13.30;99.90
20714;DHT22;10518;50.742;4.226;2023-05-29T02:05:58;13.40;99.90
20714;DHT22;10518;50.742;4.226;2023-05-29T02:08:23;13.30;99.90
20714;DHT22;10518;50.742;4.226;2023-05-29T02:10:49;13.50;99.90
20714;DHT22;10518;50.742;4.226;2023-05-29T02:13:14;13.60;99.90
20714;DHT22;10518;50.742;4.226;2023-05-29T02:15:40;13.50;99.90
20714;DHT22;10518;50.742;4.226;2023-05-29T02:18:12;13.30;99.90
20714;DHT22;10518;50.742;4.226;2023-05-29T02:20:38;13.30;99.90
20714;DHT22;10518;50.742;4.226;2023-05-29T02:23:04;13.20;99.90
20714;DHT22;10518;50.742;4.226;2023-05-29T02:25:29;13.10;99.90
20714;DHT22;10518;50.742;4.226;2023-05-29T02:27:55;13.10;99.90
20714;DHT22;10518;50.742;4.226;2023-05-29T02:30:21;13.00;99.90
20714;DHT22;10518;50.742;4.226;2023-05-29T02:32:46;12.90;99.90
20714;DHT22;10518;50.742;4.226;2023-05-29T02:35:12;13.00;99.90
20714;DHT22;10518;50.742;4.226;2023-05-29T02:37:40;13.00;99.90
20714;DHT22;10518;50.742;4.226;2023-05-29T02:40:07;13.00;99.90
20714;DHT22;10518;50.742;4.226;2023-05-29T02:42:34;12.80;99.90
20714;DHT22;10518;50.742;4.226;2023-05-29T02:44:59;12.80;99.90
20714;DHT22;10518;50.742;4.226;2023-05-29T02:47:25;13.00;99.90
20714;DHT22;10518;50.742;4.226;2023-05-29T02:49:51;12.80;99.90
20714;DHT22;10518;50.742;4.226;2023-05-29T02:52:16;12.80;99.90
20714;DHT22;10518;50.742;4.226;2023-05-29T02:54:42;12.90;99.90
20714;DHT22;10518;50.742;4.226;2023-05-29T02:57:08;12.70;99.90
20714;DHT22;10518;50.742;4.226;2023-05-29T02:59:33;12.70;99.90
20714;DHT22;10518;50.742;4.226;2023-05-29T03:01:59;12.50;99.90
20714;DHT22;10518;50.742;4.226;2023-05-29T03:04:24;12.60;99.90
20714;DHT22;10518;50.742;4.226;2023-05-29T03:06:50;12.50;99.90
20714;DHT22;10518;50.742;4.226;2023-05-29T03:09:18;12.50;99.90
20714;DHT22;10518;50.742;4.226;2023-05-29T03:11:43;12.40;99.90
20714;DHT22;10518;50.742;4.226;2023-05-29T03:14:10;12.50;99.90
20714;DHT22;10518;50.742;4.226;2023-05-29T03:16:35;12.50;99.90
20714;DHT22;10518;50.742;4.226;2023-05-29T03:19:01;12.50;99.90
20714;DHT22;10518;50.742;4.226;2023-05-29T03:21:27;12.50;99.90
20714;DHT22;10518;50.742;4.226;2023-05-29T03:23:52;12.50;99.90
20714;DHT22;10518;50.742;4.226;2023-05-29T03:26:18;12.60;99.90
20714;DHT22;10518;50.742;4.226;2023-05-29T03:28:44;12.40;99.90
20714;DHT22;10518;50.742;4.226;2023-05-29T03:31:09;12.40;99.90
20714;DHT22;10518;50.742;4.226;2023-05-29T03:33:38;12.40;99.90
20714;DHT22;10518;50.742;4.226;2023-05-29T03:36:04;12.50;99.90
20714;DHT22;10518;50.742;4.226;2023-05-29T03:38:30;12.40;99.90
20714;DHT22;10518;50.742;4.226;2023-05-29T03:40:56;12.30;99.90
20714;DHT22;10518;50.742;4.226;2023-05-29T03:43:21;12.50;99.90
20714;DHT22;10518;50.742;4.226;2023-05-29T03:45:47;12.30;99.90
20714;DHT22;10518;50.742;4.226;2023-05-29T03:48:13;12.30;99.90
20714;DHT22;10518;50.742;4.226;2023-05-29T03:50:39;12.20;99.90
20714;DHT22;10518;50.742;4.226;2023-05-29T03:53:05;12.20;99.90
20714;DHT22;10518;50.742;4.226;2023-05-29T03:55:31;12.30;99.90
20714;DHT22;10518;50.742;4.226;2023-05-29T03:57:57;12.00;99.90
20714;DHT22;10518;50.742;4.226;2023-05-29T04:00:22;12.10;99.90
20714;DHT22;10518;50.742;4.226;2023-05-29T04:02:48;11.90;99.90
20714;DHT22;10518;50.742;4.226;2023-05-29T04:05:13;11.90;99.90
20714;DHT22;10518;50.742;4.226;2023-05-29T04:07:39;11.70;99.90
20714;DHT22;10518;50.742;4.226;2023-05-29T04:10:06;11.90;99.90
20714;DHT22;10518;50.742;4.226;2023-05-29T04:12:35;11.90;99.90
20714;DHT22;10518;50.742;4.226;2023-05-29T04:15:00;11.80;99.90
20714;DHT22;10518;50.742;4.226;2023-05-29T04:17:26;12.10;99.90
20714;DHT22;10518;50.742;4.226;2023-05-29T04:19:52;12.20;99.90
20714;DHT22;10518;50.742;4.226;2023-05-29T04:22:17;12.00;99.90
20714;DHT22;10518;50.742;4.226;2023-05-29T04:24:45;11.90;99.90
20714;DHT22;10518;50.742;4.226;2023-05-29T04:27:10;11.90;99.90
20714;DHT22;10518;50.742;4.226;2023-05-29T04:29:41;11.90;99.90
20714;DHT22;10518;50.742;4.226;2023-05-29T04:32:10;12.00;99.90
20714;DHT22;10518;50.742;4.226;2023-05-29T04:34:37;12.00;99.90
20714;DHT22;10518;50.742;4.226;2023-05-29T04:37:04;11.90;99.90
20714;DHT22;10518;50.742;4.226;2023-05-29T04:39:30;11.80;99.90
20714;DHT22;10518;50.742;4.226;2023-05-29T04:41:56;11.70;99.90
20714;DHT22;10518;50.742;4.226;2023-05-29T04:44:24;11.90;99.90
20714;DHT22;10518;50.742;4.226;2023-05-29T04:46:52;11.90;99.90
20714;DHT22;10518;50.742;4.226;2023-05-29T04:49:17;11.80;99.90
20714;DHT22;10518;50.742;4.226;2023-05-29T04:51:43;11.90;99.90
20714;DHT22;10518;50.742;4.226;2023-05-29T04:54:10;12.00;99.90
20714;DHT22;10518;50.742;4.226;2023-05-29T04:56:36;12.10;99.90
20714;DHT22;10518;50.742;4.226;2023-05-29T04:59:03;12.30;99.90
20714;DHT22;10518;50.742;4.226;2023-05-29T05:01:28;12.10;99.90
20714;DHT22;10518;50.742;4.226;2023-05-29T05:03:54;12.20;99.90
20714;DHT22;10518;50.742;4.226;2023-05-29T05:06:23;12.40;99.90
20714;DHT22;10518;50.742;4.226;2023-05-29T05:08:53;12.40;99.90
20714;DHT22;10518;50.742;4.226;2023-05-29T05:11:21;12.50;99.90
20714;DHT22;10518;50.742;4.226;2023-05-29T05:13:47;12.70;99.90
20714;DHT22;10518;50.742;4.226;2023-05-29T05:16:13;12.80;99.90
20714;DHT22;10518;50.742;4.226;2023-05-29T05:18:38;13.00;99.90
20714;DHT22;10518;50.742;4.226;2023-05-29T05:21:04;13.20;99.90
20714;DHT22;10518;50.742;4.226;2023-05-29T05:23:30;13.50;99.90
20714;DHT22;10518;50.742;4.226;2023-05-29T05:25:56;13.80;99.90
20714;DHT22;10518;50.742;4.226;2023-05-29T05:28:21;14.40;99.90
20714;DHT22;10518;50.742;4.226;2023-05-29T05:30:47;14.40;99.90
20714;DHT22;10518;50.742;4.226;2023-05-29T05:33:13;14.70;99.90
20714;DHT22;10518;50.742;4.226;2023-05-29T05:35:38;14.90;99.90
20714;DHT22;10518;50.742;4.226;2023-05-29T05:38:04;14.80;99.90
20714;DHT22;10518;50.742;4.226;2023-05-29T05:40:30;15.00;99.90
20714;DHT22;10518;50.742;4.226;2023-05-29T05:42:55;15.50;99.90
20714;DHT22;10518;50.742;4.226;2023-05-29T05:45:21;16.00;99.90
20714;DHT22;10518;50.742;4.226;2023-05-29T05:47:47;16.50;99.90
20714;DHT22;10518;50.742;4.226;2023-05-29T05:50:13;16.80;99.90
20714;DHT22;10518;50.742;4.226;2023-05-29T05:52:39;16.70;99.90
20714;DHT22;10518;50.742;4.226;2023-05-29T05:55:04;16.80;99.90
20714;DHT22;10518;50.742;4.226;2023-05-29T05:57:31;16.90;99.90
20714;DHT22;10518;50.742;4.226;2023-05-29T05:59:59;17.10;99.90
20714;DHT22;10518;50.742;4.226;2023-05-29T06:02:25;16.50;99.90
20714;DHT22;10518;50.742;4.226;2023-05-29T06:04:51;17.00;99.90
20714;DHT22;10518;50.742;4.226;2023-05-29T06:07:17;16.70;99.90
20714;DHT22;10518;50.742;4.226;2023-05-29T06:09:43;16.70;99.90
20714;DHT22;10518;50.742;4.226;2023-05-29T06:12:08;16.40;99.90
20714;DHT22;10518;50.742;4.226;2023-05-29T06:14:35;16.70;99.90
20714;DHT22;10518;50.742;4.226;2023-05-29T06:17:00;17.20;99.90
20714;DHT22;10518;50.742;4.226;2023-05-29T06:19:26;17.60;99.90
20714;DHT22;10518;50.742;4.226;2023-05-29T06:21:52;17.10;99.90
20714;DHT22;10518;50.742;4.226;2023-05-29T06:24:18;17.20;99.90
20714;DHT22;10518;50.742;4.226;2023-05-29T06:26:43;17.20;99.90
20714;DHT22;10518;50.742;4.226;2023-05-29T06:29:09;17.20;99.90
20714;DHT22;10518;50.742;4.226;2023-05-29T06:31:34;17.20;99.90
20714;DHT22;10518;50.742;4.226;2023-05-29T06:34:00;17.40;99.90
20714;DHT22;10518;50.742;4.226;2023-05-29T06:36:26;17.80;99.90
20714;DHT22;10518;50.742;4.226;2023-05-29T06:38:51;18.30;99.90
20714;DHT22;10518;50.742;4.226;2023-05-29T06:41:17;18.00;99.90
20714;DHT22;10518;50.742;4.226;2023-05-29T06:43:43;17.80;99.90
20714;DHT22;10518;50.742;4.226;2023-05-29T06:46:09;18.20;99.90
20714;DHT22;10518;50.742;4.226;2023-05-29T06:48:35;18.30;99.90
20714;DHT22;10518;50.742;4.226;2023-05-29T06:51:02;18.30;99.90
20714;DHT22;10518;50.742;4.226;2023-05-29T06:53:37;17.80;99.90
20714;DHT22;10518;50.742;4.226;2023-05-29T06:56:03;17.70;99.90
20714;DHT22;10518;50.742;4.226;2023-05-29T06:58:30;17.00;99.90
20714;DHT22;10518;50.742;4.226;2023-05-29T07:01:05;17.30;99.90
20714;DHT22;10518;50.742;4.226;2023-05-29T07:03:31;17.40;99.90
20714;DHT22;10518;50.742;4.226;2023-05-29T07:05:56;17.60;99.90
20714;DHT22;10518;50.742;4.226;2023-05-29T07:08:23;17.60;99.90
20714;DHT22;10518;50.742;4.226;2023-05-29T07:10:48;17.70;99.90
20714;DHT22;10518;50.742;4.226;2023-05-29T07:13:17;17.50;99.90
20714;DHT22;10518;50.742;4.226;2023-05-29T07:15:44;16.90;99.90
20714;DHT22;10518;50.742;4.226;2023-05-29T07:18:10;17.20;99.90
20714;DHT22;10518;50.742;4.226;2023-05-29T07:20:36;17.80;99.90
20714;DHT22;10518;50.742;4.226;2023-05-29T07:23:02;18.10;99.90
20714;DHT22;10518;50.742;4.226;2023-05-29T07:25:27;18.00;99.90
20714;DHT22;10518;50.742;4.226;2023-05-29T07:27:53;17.60;99.90
20714;DHT22;10518;50.742;4.226;2023-05-29T07:30:19;18.00;99.90
20714;DHT22;10518;50.742;4.226;2023-05-29T07:32:45;18.20;99.90
20714;DHT22;10518;50.742;4.226;2023-05-29T07:35:10;17.80;99.90
20714;DHT22;10518;50.742;4.226;2023-05-29T07:37:37;17.40;99.90
20714;DHT22;10518;50.742;4.226;2023-05-29T07:40:03;17.70;99.90
20714;DHT22;10518;50.742;4.226;2023-05-29T07:42:31;18.20;99.90
20714;DHT22;10518;50.742;4.226;2023-05-29T07:44:57;18.70;99.90
20714;DHT22;10518;50.742;4.226;2023-05-29T07:47:23;18.80;99.90
20714;DHT22;10518;50.742;4.226;2023-05-29T07:49:49;19.30;99.90
20714;DHT22;10518;50.742;4.226;2023-05-29T07:52:14;19.00;99.90
20714;DHT22;10518;50.742;4.226;2023-05-29T07:54:40;19.00;99.90
20714;DHT22;10518;50.742;4.226;2023-05-29T07:57:06;19.60;99.90
20714;DHT22;10518;50.742;4.226;2023-05-29T07:59:35;19.60;99.90
20714;DHT22;10518;50.742;4.226;2023-05-29T08:02:01;19.60;99.90
20714;DHT22;10518;50.742;4.226;2023-05-29T08:04:28;19.90;99.90
20714;DHT22;10518;50.742;4.226;2023-05-29T08:06:54;19.60;99.90
20714;DHT22;10518;50.742;4.226;2023-05-29T08:09:20;19.10;99.90
20714;DHT22;10518;50.742;4.226;2023-05-29T08:11:45;19.10;99.90
20714;DHT22;10518;50.742;4.226;2023-05-29T08:14:12;18.20;99.90
20714;DHT22;10518;50.742;4.226;2023-05-29T08:16:37;18.00;99.90
20714;DHT22;10518;50.742;4.226;2023-05-29T08:19:03;17.80;99.90
20714;DHT22;10518;50.742;4.226;2023-05-29T08:21:30;17.60;99.90
20714;DHT22;10518;50.742;4.226;2023-05-29T08:23:57;17.70;99.90
20714;DHT22;10518;50.742;4.226;2023-05-29T08:26:22;17.80;99.90
20714;DHT22;10518;50.742;4.226;2023-05-29T08:28:48;17.50;99.90
20714;DHT22;10518;50.742;4.226;2023-05-29T08:31:13;17.30;99.90
20714;DHT22;10518;50.742;4.226;2023-05-29T08:33:39;17.40;99.90
20714;DHT22;10518;50.742;4.226;2023-05-29T08:36:05;17.50;99.90
20714;DHT22;10518;50.742;4.226;2023-05-29T08:38:31;17.50;99.90
20714;DHT22;10518;50.742;4.226;2023-05-29T08:40:57;17.40;99.90
20714;DHT22;10518;50.742;4.226;2023-05-29T08:43:30;17.70;99.90
20714;DHT22;10518;50.742;4.226;2023-05-29T08:45:59;17.90;99.90
20714;DHT22;10518;50.742;4.226;2023-05-29T08:48:27;17.50;99.90
20714;DHT22;10518;50.742;4.226;2023-05-29T08:50:55;17.40;99.90
20714;DHT22;10518;50.742;4.226;2023-05-29T08:53:24;17.60;99.90
20714;DHT22;10518;50.742;4.226;2023-05-29T08:55:51;17.70;99.90
20714;DHT22;10518;50.742;4.226;2023-05-29T08:58:19;17.40;99.90
20714;DHT22;10518;50.742;4.226;2023-05-29T09:00:47;17.30;99.90
20714;DHT22;10518;50.742;4.226;2023-05-29T09:03:13;17.30;99.90
20714;DHT22;10518;50.742;4.226;2023-05-29T09:05:40;17.50;99.90
20714;DHT22;10518;50.742;4.226;2023-05-29T09:08:09;17.60;99.90
20714;DHT22;10518;50.742;4.226;2023-05-29T09:10:38;17.60;99.90
20714;DHT22;10518;50.742;4.226;2023-05-29T09:13:05;17.80;99.90
20714;DHT22;10518;50.742;4.226;2023-05-29T09:15:31;17.70;99.90
20714;DHT22;10518;50.742;4.226;2023-05-29T09:17:57;17.50;99.90
20714;DHT22;10518;50.742;4.226;2023-05-29T09:20:24;17.50;99.90
20714;DHT22;10518;50.742;4.226;2023-05-29T09:23:05;17.70;99.90
20714;DHT22;10518;50.742;4.226;2023-05-29T09:25:32;17.70;99.90
20714;DHT22;10518;50.742;4.226;2023-05-29T09:30:37;17.50;99.90
20714;DHT22;10518;50.742;4.226;2023-05-29T09:33:05;17.50;99.90
20714;DHT22;10518;50.742;4.226;2023-05-29T09:35:35;17.60;99.90
20714;DHT22;10518;50.742;4.226;2023-05-29T09:38:01;17.60;99.90
20714;DHT22;10518;50.742;4.226;2023-05-29T09:40:29;17.50;99.90
20714;DHT22;10518;50.742;4.226;2023-05-29T09:42:55;17.50;99.90
20714;DHT22;10518;50.742;4.226;2023-05-29T09:45:22;17.70;99.90
20714;DHT22;10518;50.742;4.226;2023-05-29T09:47:50;17.80;99.90
20714;DHT22;10518;50.742;4.226;2023-05-29T09:50:19;17.70;99.90
20714;DHT22;10518;50.742;4.226;2023-05-29T09:52:48;17.70;99.90
20714;DHT22;10518;50.742;4.226;2023-05-29T09:55:18;17.80;99.90
20714;DHT22;10518;50.742;4.226;2023-05-29T09:57:46;17.90;99.90
20714;DHT22;10518;50.742;4.226;2023-05-29T10:00:14;17.90;99.90
20714;DHT22;10518;50.742;4.226;2023-05-29T10:02:41;18.00;99.90
20714;DHT22;10518;50.742;4.226;2023-05-29T10:05:07;17.80;99.90
20714;DHT22;10518;50.742;4.226;2023-05-29T10:07:35;17.90;99.90
20714;DHT22;10518;50.742;4.226;2023-05-29T10:10:04;17.90;99.90
20714;DHT22;10518;50.742;4.226;2023-05-29T10:12:36;18.10;99.90
20714;DHT22;10518;50.742;4.226;2023-05-29T10:15:11;18.20;99.90
20714;DHT22;10518;50.742;4.226;2023-05-29T10:17:37;18.10;99.90
20714;DHT22;10518;50.742;4.226;2023-05-29T10:20:05;18.00;99.90
20714;DHT22;10518;50.742;4.226;2023-05-29T10:22:36;18.10;99.90
20714;DHT22;10518;50.742;4.226;2023-05-29T10:25:06;18.00;99.90
20714;DHT22;10518;50.742;4.226;2023-05-29T10:27:33;18.00;99.90
20714;DHT22;10518;50.742;4.226;2023-05-29T10:30:04;18.10;99.90
20714;DHT22;10518;50.742;4.226;2023-05-29T10:35:25;17.90;99.90
20714;DHT22;10518;50.742;4.226;2023-05-29T10:38:15;18.10;99.90
20714;DHT22;10518;50.742;4.226;2023-05-29T10:40:45;18.00;99.90
20714;DHT22;10518;50.742;4.226;2023-05-29T10:43:29;18.20;99.90
20714;DHT22;10518;50.742;4.226;2023-05-29T10:45:56;18.50;99.90
20714;DHT22;10518;50.742;4.226;2023-05-29T10:50:55;18.60;99.90
20714;DHT22;10518;50.742;4.226;2023-05-29T10:53:25;18.70;99.90
20714;DHT22;10518;50.742;4.226;2023-05-29T10:55:52;18.90;99.90
20714;DHT22;10518;50.742;4.226;2023-05-29T10:58:20;18.90;99.90
20714;DHT22;10518;50.742;4.226;2023-05-29T11:00:47;18.70;99.90
20714;DHT22;10518;50.742;4.226;2023-05-29T11:03:31;18.80;99.90
20714;DHT22;10518;50.742;4.226;2023-05-29T11:06:05;18.60;99.90
20714;DHT22;10518;50.742;4.226;2023-05-29T11:11:12;18.60;99.90
20714;DHT22;10518;50.742;4.226;2023-05-29T11:13:38;18.60;99.90
20714;DHT22;10518;50.742;4.226;2023-05-29T11:18:49;18.90;99.90
20714;DHT22;10518;50.742;4.226;2023-05-29T11:21:21;18.80;99.90
20714;DHT22;10518;50.742;4.226;2023-05-29T11:23:50;18.60;99.90
20714;DHT22;10518;50.742;4.226;2023-05-29T11:26:17;18.80;99.90
20714;DHT22;10518;50.742;4.226;2023-05-29T11:28:43;19.00;99.90
20714;DHT22;10518;50.742;4.226;2023-05-29T11:31:09;19.00;99.90
20714;DHT22;10518;50.742;4.226;2023-05-29T11:33:39;19.10;99.90
20714;DHT22;10518;50.742;4.226;2023-05-29T11:36:08;19.10;99.90
20714;DHT22;10518;50.742;4.226;2023-05-29T11:38:33;19.10;99.90
20714;DHT22;10518;50.742;4.226;2023-05-29T11:41:01;19.30;99.90
20714;DHT22;10518;50.742;4.226;2023-05-29T11:43:27;19.30;99.90
20714;DHT22;10518;50.742;4.226;2023-05-29T11:45:52;19.30;99.90
20714;DHT22;10518;50.742;4.226;2023-05-29T11:48:18;19.40;99.90
20714;DHT22;10518;50.742;4.226;2023-05-29T11:50:44;19.50;99.90
20714;DHT22;10518;50.742;4.226;2023-05-29T11:53:11;19.50;99.90
20714;DHT22;10518;50.742;4.226;2023-05-29T11:55:37;19.50;99.90
20714;DHT22;10518;50.742;4.226;2023-05-29T11:58:04;19.80;99.90
20714;DHT22;10518;50.742;4.226;2023-05-29T12:00:35;19.70;99.90
20714;DHT22;10518;50.742;4.226;2023-05-29T12:03:01;19.70;99.90
20714;DHT22;10518;50.742;4.226;2023-05-29T12:05:31;19.70;99.90
20714;DHT22;10518;50.742;4.226;2023-05-29T12:07:57;19.50;99.90
20714;DHT22;10518;50.742;4.226;2023-05-29T12:10:23;19.90;99.90
20714;DHT22;10518;50.742;4.226;2023-05-29T12:12:57;19.90;99.90
20714;DHT22;10518;50.742;4.226;2023-05-29T12:15:23;20.00;99.90
20714;DHT22;10518;50.742;4.226;2023-05-29T12:17:50;19.90;99.90
20714;DHT22;10518;50.742;4.226;2023-05-29T12:20:16;19.90;99.90
20714;DHT22;10518;50.742;4.226;2023-05-29T12:22:44;19.90;99.90
20714;DHT22;10518;50.742;4.226;2023-05-29T12:25:14;19.90;99.90
20714;DHT22;10518;50.742;4.226;2023-05-29T12:27:45;20.10;99.90
20714;DHT22;10518;50.742;4.226;2023-05-29T12:30:24;20.00;99.90
20714;DHT22;10518;50.742;4.226;2023-05-29T12:32:51;19.90;99.90
20714;DHT22;10518;50.742;4.226;2023-05-29T12:35:17;19.90;99.90
20714;DHT22;10518;50.742;4.226;2023-05-29T12:40:23;20.00;99.90
20714;DHT22;10518;50.742;4.226;2023-05-29T12:42:57;20.20;99.90
20714;DHT22;10518;50.742;4.226;2023-05-29T12:45:25;20.10;99.90
20714;DHT22;10518;50.742;4.226;2023-05-29T12:48:01;20.20;99.90
20714;DHT22;10518;50.742;4.226;2023-05-29T12:50:30;20.50;99.90
20714;DHT22;10518;50.742;4.226;2023-05-29T12:55:32;20.50;99.90
20714;DHT22;10518;50.742;4.226;2023-05-29T12:57:59;20.60;99.90
20714;DHT22;10518;50.742;4.226;2023-05-29T13:00:25;20.80;99.90
20714;DHT22;10518;50.742;4.226;2023-05-29T13:02:51;20.70;99.90
20714;DHT22;10518;50.742;4.226;2023-05-29T13:05:17;20.70;99.90
20714;DHT22;10518;50.742;4.226;2023-05-29T13:07:45;20.40;99.90
20714;DHT22;10518;50.742;4.226;2023-05-29T13:10:11;20.40;99.90
20714;DHT22;10518;50.742;4.226;2023-05-29T13:12:36;20.70;99.90
20714;DHT22;10518;50.742;4.226;2023-05-29T13:15:02;20.60;99.90
20714;DHT22;10518;50.742;4.226;2023-05-29T13:17:28;20.70;99.90
20714;DHT22;10518;50.742;4.226;2023-05-29T13:19:54;20.90;99.90
20714;DHT22;10518;50.742;4.226;2023-05-29T13:22:19;20.80;99.90
20714;DHT22;10518;50.742;4.226;2023-05-29T13:24:45;20.70;99.90
20714;DHT22;10518;50.742;4.226;2023-05-29T13:27:11;20.60;99.90
20714;DHT22;10518;50.742;4.226;2023-05-29T13:29:39;20.60;99.90
20714;DHT22;10518;50.742;4.226;2023-05-29T13:32:06;20.70;99.90
20714;DHT22;10518;50.742;4.226;2023-05-29T13:34:32;20.60;99.90
20714;DHT22;10518;50.742;4.226;2023-05-29T13:36:58;20.70;99.90
20714;DHT22;10518;50.742;4.226;2023-05-29T13:39:23;20.80;99.90
20714;DHT22;10518;50.742;4.226;2023-05-29T13:41:50;21.00;99.90
20714;DHT22;10518;50.742;4.226;2023-05-29T13:44:16;20.60;99.90
20714;DHT22;10518;50.742;4.226;2023-05-29T13:46:41;20.80;99.90
20714;DHT22;10518;50.742;4.226;2023-05-29T13:49:07;21.00;99.90
20714;DHT22;10518;50.742;4.226;2023-05-29T13:51:33;20.90;99.90
20714;DHT22;10518;50.742;4.226;2023-05-29T13:54:01;20.90;99.90
20714;DHT22;10518;50.742;4.226;2023-05-29T13:56:27;21.00;99.90
20714;DHT22;10518;50.742;4.226;2023-05-29T13:58:53;20.70;99.90
20714;DHT22;10518;50.742;4.226;2023-05-29T14:01:19;20.90;99.90
20714;DHT22;10518;50.742;4.226;2023-05-29T14:03:45;20.80;99.90
20714;DHT22;10518;50.742;4.226;2023-05-29T14:06:11;21.10;99.90
20714;DHT22;10518;50.742;4.226;2023-05-29T14:08:36;21.20;99.90
20714;DHT22;10518;50.742;4.226;2023-05-29T14:11:02;21.20;99.90
20714;DHT22;10518;50.742;4.226;2023-05-29T14:13:28;21.10;99.90
20714;DHT22;10518;50.742;4.226;2023-05-29T14:15:53;21.30;99.90
20714;DHT22;10518;50.742;4.226;2023-05-29T14:18:21;21.30;99.90
20714;DHT22;10518;50.742;4.226;2023-05-29T14:20:47;21.30;99.90
20714;DHT22;10518;50.742;4.226;2023-05-29T14:23:14;21.20;99.90
20714;DHT22;10518;50.742;4.226;2023-05-29T14:25:41;21.20;99.90
20714;DHT22;10518;50.742;4.226;2023-05-29T14:28:07;20.90;99.90
20714;DHT22;10518;50.742;4.226;2023-05-29T14:30:33;20.90;99.90
20714;DHT22;10518;50.742;4.226;2023-05-29T14:32:59;20.80;99.90
20714;DHT22;10518;50.742;4.226;2023-05-29T14:35:25;20.80;99.90
20714;DHT22;10518;50.742;4.226;2023-05-29T14:37:51;20.90;99.90
20714;DHT22;10518;50.742;4.226;2023-05-29T14:40:17;21.30;99.90
20714;DHT22;10518;50.742;4.226;2023-05-29T14:42:42;21.50;99.90
20714;DHT22;10518;50.742;4.226;2023-05-29T14:45:08;21.40;99.90
20714;DHT22;10518;50.742;4.226;2023-05-29T14:47:35;21.20;99.90
20714;DHT22;10518;50.742;4.226;2023-05-29T14:50:01;21.40;99.90
20714;DHT22;10518;50.742;4.226;2023-05-29T14:52:26;21.40;99.90
20714;DHT22;10518;50.742;4.226;2023-05-29T14:54:52;21.40;99.90
20714;DHT22;10518;50.742;4.226;2023-05-29T14:57:18;21.20;99.90
20714;DHT22;10518;50.742;4.226;2023-05-29T14:59:43;21.10;99.90
20714;DHT22;10518;50.742;4.226;2023-05-29T15:02:09;21.30;99.90
20714;DHT22;10518;50.742;4.226;2023-05-29T15:04:35;21.20;99.90
20714;DHT22;10518;50.742;4.226;2023-05-29T15:07:01;21.30;99.90
20714;DHT22;10518;50.742;4.226;2023-05-29T15:09:26;21.30;99.90
20714;DHT22;10518;50.742;4.226;2023-05-29T15:11:52;21.30;99.90
20714;DHT22;10518;50.742;4.226;2023-05-29T15:14:18;21.20;99.90
20714;DHT22;10518;50.742;4.226;2023-05-29T15:16:44;21.20;99.90
20714;DHT22;10518;50.742;4.226;2023-05-29T15:19:10;21.20;99.90
20714;DHT22;10518;50.742;4.226;2023-05-29T15:21:36;21.10;99.90
20714;DHT22;10518;50.742;4.226;2023-05-29T15:24:02;21.20;99.90
20714;DHT22;10518;50.742;4.226;2023-05-29T15:26:28;21.30;99.90
20714;DHT22;10518;50.742;4.226;2023-05-29T15:28:53;21.10;99.90
20714;DHT22;10518;50.742;4.226;2023-05-29T15:31:19;21.10;99.90
20714;DHT22;10518;50.742;4.226;2023-05-29T15:33:48;21.30;99.90
20714;DHT22;10518;50.742;4.226;2023-05-29T15:36:14;21.20;99.90
20714;DHT22;10518;50.742;4.226;2023-05-29T15:38:41;21.20;99.90
20714;DHT22;10518;50.742;4.226;2023-05-29T15:41:07;21.30;99.90
20714;DHT22;10518;50.742;4.226;2023-05-29T15:43:33;21.20;99.90
20714;DHT22;10518;50.742;4.226;2023-05-29T15:45:59;21.00;99.90
20714;DHT22;10518;50.742;4.226;2023-05-29T15:48:25;21.10;99.90
20714;DHT22;10518;50.742;4.226;2023-05-29T15:50:50;21.00;99.90
20714;DHT22;10518;50.742;4.226;2023-05-29T15:53:16;20.60;99.90
20714;DHT22;10518;50.742;4.226;2023-05-29T15:55:41;20.70;99.90
20714;DHT22;10518;50.742;4.226;2023-05-29T15:58:08;20.80;99.90
20714;DHT22;10518;50.742;4.226;2023-05-29T16:00:34;20.70;99.90
20714;DHT22;10518;50.742;4.226;2023-05-29T16:03:00;20.80;99.90